Time;durP1;ratioP1;P1;durP2;ratioP2;P2;SDS_P1;SDS_P2;PMS_P1;PMS_P2;Temp;Humidity;BMP_temperature;BMP_pressure;BME280_temperature;BME280_humidity;BME280_pressure;Samples;Min_cycle;Max_cycle;Signal;HPM_P1;HPM_P2
2023/04/07 00:00:17;;;;;;;26.05;19.75;;;3.00;99.90;;;;;;2084477;28;20617;-65
2023/04/07 00:01:17;;;;;;;30.10;20.50;;;3.00;99.90;;;;;;2081266;28;20208;-67
2023/04/07 00:02:18;;;;;;;28.55;21.25;;;3.00;99.90;;;;;;2083868;28;20514;-66
2023/04/07 00:03:18;;;;;;;31.25;21.25;;;3.00;99.90;;;;;;2083858;28;20958;-66
2023/04/07 00:04:19;;;;;;;29.52;21.65;;;3.00;99.90;;;;;;2082999;28;20053;-65
2023/04/07 00:05:20;;;;;;;28.27;20.40;;;3.00;99.90;;;;;;2083056;28;20029;-67
2023/04/07 00:06:20;;;;;;;25.65;19.00;;;3.00;99.90;;;;;;2080291;28;20033;-65
2023/04/07 00:07:21;;;;;;;25.52;18.55;;;2.90;99.90;;;;;;2075358;28;20075;-64
2023/04/07 00:08:22;;;;;;;26.02;19.02;;;2.90;99.90;;;;;;2083404;28;20049;-65
2023/04/07 00:09:22;;;;;;;25.58;18.58;;;2.90;99.90;;;;;;2085516;28;20100;-64
2023/04/07 00:10:24;;;;;;;24.52;18.17;;;2.90;99.90;;;;;;2083534;28;20116;-65
2023/04/07 00:11:24;;;;;;;24.67;17.75;;;2.90;99.90;;;;;;2083070;28;20529;-65
2023/04/07 00:12:25;;;;;;;24.27;17.55;;;2.80;99.90;;;;;;2074336;28;20029;-64
2023/04/07 00:13:25;;;;;;;23.10;17.25;;;2.80;99.90;;;;;;2082876;28;20282;-65
2023/04/07 00:14:26;;;;;;;23.70;17.33;;;2.80;99.90;;;;;;2081053;28;20025;-65
2023/04/07 00:15:27;;;;;;;25.08;17.30;;;2.80;99.90;;;;;;2082754;28;20136;-65
2023/04/07 00:16:27;;;;;;;23.33;16.73;;;2.80;99.90;;;;;;2084829;28;20039;-65
2023/04/07 00:17:28;;;;;;;21.83;16.25;;;2.80;99.90;;;;;;2083479;28;20459;-65
2023/04/07 00:18:28;;;;;;;23.10;16.25;;;2.80;99.90;;;;;;2083390;28;20375;-65
2023/04/07 00:19:29;;;;;;;21.80;16.70;;;2.80;99.90;;;;;;2083559;28;20029;-65
2023/04/07 00:20:29;;;;;;;23.70;17.08;;;2.80;99.90;;;;;;2085357;28;20025;-65
2023/04/07 00:21:30;;;;;;;22.60;17.13;;;2.80;99.90;;;;;;2083406;28;20131;-65
2023/04/07 00:22:31;;;;;;;22.65;17.50;;;2.70;99.90;;;;;;2083458;28;20033;-65
2023/04/07 00:23:31;;;;;;;23.40;17.27;;;2.70;99.90;;;;;;2083298;28;20078;-65
2023/04/07 00:24:32;;;;;;;22.17;16.67;;;2.70;99.90;;;;;;2083540;28;20481;-65
2023/04/07 00:25:32;;;;;;;21.95;17.13;;;2.70;99.90;;;;;;2085400;28;20029;-65
2023/04/07 00:26:33;;;;;;;25.23;18.25;;;2.60;99.90;;;;;;2090888;28;20107;-65
2023/04/07 00:27:34;;;;;;;25.65;18.52;;;2.60;99.90;;;;;;2091285;28;20082;-65
2023/04/07 00:28:34;;;;;;;26.58;18.70;;;2.60;99.90;;;;;;2081474;28;20049;-65
2023/04/07 00:29:35;;;;;;;25.13;18.80;;;2.60;99.90;;;;;;2087948;28;20098;-65
2023/04/07 00:30:35;;;;;;;25.02;18.00;;;2.60;99.90;;;;;;2082703;28;20037;-65
2023/04/07 00:31:36;;;;;;;24.13;18.35;;;2.50;99.90;;;;;;2082411;28;20037;-65
2023/04/07 00:32:37;;;;;;;26.15;18.73;;;2.50;99.90;;;;;;2082365;28;20029;-64
2023/04/07 00:33:37;;;;;;;25.58;18.77;;;2.50;99.90;;;;;;2084080;28;20179;-65
2023/04/07 00:34:38;;;;;;;27.98;20.40;;;2.50;99.90;;;;;;2084850;28;20032;-64
2023/04/07 00:35:38;;;;;;;26.05;19.27;;;2.50;99.90;;;;;;2083343;28;20027;-65
2023/04/07 00:36:39;;;;;;;27.00;18.77;;;2.50;99.90;;;;;;2085715;28;20016;-66
2023/04/07 00:37:40;;;;;;;25.40;19.38;;;2.50;99.90;;;;;;2082261;28;20237;-65
2023/04/07 00:38:40;;;;;;;25.55;19.42;;;2.40;99.90;;;;;;2087936;28;20594;-65
2023/04/07 00:39:41;;;;;;;27.55;19.58;;;2.40;99.90;;;;;;2092806;28;20040;-65
2023/04/07 00:40:41;;;;;;;26.38;20.10;;;2.40;99.90;;;;;;2082460;28;20043;-65
2023/04/07 00:41:42;;;;;;;28.42;19.73;;;2.40;99.90;;;;;;2074501;28;20025;-65
2023/04/07 00:42:42;;;;;;;26.13;18.98;;;2.40;99.90;;;;;;2082441;28;20033;-64
2023/04/07 00:43:43;;;;;;;26.90;19.55;;;2.40;99.90;;;;;;2084423;28;20102;-65
2023/04/07 00:44:44;;;;;;;24.42;18.27;;;2.30;99.90;;;;;;2081997;28;20048;-64
2023/04/07 00:45:45;;;;;;;25.80;18.48;;;2.30;99.90;;;;;;2069965;28;20022;-65
2023/04/07 00:46:47;;;;;;;27.08;18.83;;;2.30;99.90;;;;;;2082602;28;20120;-65
2023/04/07 00:47:47;;;;;;;25.27;18.52;;;2.30;99.90;;;;;;2082598;28;20024;-64
2023/04/07 00:48:48;;;;;;;23.40;17.52;;;2.20;99.90;;;;;;2075914;28;20025;-65
2023/04/07 00:49:49;;;;;;;24.52;18.42;;;2.20;99.90;;;;;;2074203;28;20021;-65
2023/04/07 00:50:49;;;;;;;23.10;17.70;;;2.20;99.90;;;;;;2082259;28;20033;-64
2023/04/07 00:51:50;;;;;;;24.33;17.17;;;2.20;99.90;;;;;;2084316;28;20015;-64
2023/04/07 00:52:53;;;;;;;24.52;17.63;;;2.20;99.90;;;;;;2084684;28;20095;-68
2023/04/07 00:53:54;;;;;;;23.17;17.42;;;2.20;99.90;;;;;;2090281;28;20119;-69
2023/04/07 00:54:55;;;;;;;23.95;17.83;;;2.10;99.90;;;;;;2082410;28;20028;-64
2023/04/07 00:55:55;;;;;;;22.55;17.20;;;2.10;99.90;;;;;;2082505;28;20063;-69
2023/04/07 00:56:57;;;;;;;23.10;18.00;;;2.10;99.90;;;;;;2076202;28;20107;-68
2023/04/07 00:57:57;;;;;;;23.60;17.42;;;2.10;99.90;;;;;;2080300;28;20341;-69
2023/04/07 00:58:59;;;;;;;24.42;17.92;;;2.10;99.90;;;;;;2082266;28;20031;-69
2023/04/07 01:00:00;;;;;;;24.23;17.92;;;2.10;99.90;;;;;;2082273;28;20025;-69
2023/04/07 01:01:08;;;;;;;23.95;17.70;;;2.10;99.90;;;;;;2082419;28;20021;-68
2023/04/07 01:02:11;;;;;;;22.27;17.20;;;2.10;99.90;;;;;;2075004;28;20031;-68
2023/04/07 01:03:18;;;;;;;24.60;17.63;;;2.00;99.90;;;;;;2074533;28;20025;-68
2023/04/07 01:04:40;;;;;;;24.23;17.23;;;2.00;99.90;;;;;;2076253;28;20036;-69
2023/04/07 01:05:58;;;;;;;23.40;17.13;;;2.00;99.90;;;;;;2076637;28;20029;-68
2023/04/07 01:07:14;;;;;;;25.27;17.35;;;2.00;99.90;;;;;;2076599;28;20244;-68
2023/04/07 01:08:39;;;;;;;22.60;16.45;;;2.00;99.90;;;;;;2089174;28;20054;-69
2023/04/07 01:09:46;;;;;;;24.00;16.98;;;1.90;99.90;;;;;;2079936;28;20500;-69
2023/04/07 01:10:54;;;;;;;23.60;17.08;;;1.90;99.90;;;;;;2082207;28;20078;-69
2023/04/07 01:12:27;;;;;;;24.10;17.48;;;1.90;99.90;;;;;;2087103;28;20040;-69
2023/04/07 01:13:42;;;;;;;27.55;18.05;;;1.90;99.90;;;;;;2079310;28;20087;-69
2023/04/07 01:15:09;;;;;;;24.52;17.60;;;1.90;99.90;;;;;;2075221;28;20029;-69
2023/04/07 01:16:25;;;;;;;;;;;1.90;99.90;;;;;;2082684;28;20025;-69
2023/04/07 01:17:27;;;;;;;25.52;17.50;;;1.90;99.90;;;;;;2082472;28;19974;-78
2023/04/07 01:18:33;;;;;;;26.08;17.80;;;1.80;99.90;;;;;;2084205;28;20025;-79
2023/04/07 01:19:45;;;;;;;23.75;17.75;;;1.80;99.90;;;;;;2087773;28;20035;-77
2023/04/07 01:20:50;;;;;;;25.77;17.73;;;1.80;99.90;;;;;;2091041;28;20047;-77
2023/04/07 01:21:54;;;;;;;26.55;18.70;;;1.80;99.90;;;;;;2083147;28;20021;-78
2023/04/07 01:22:57;;;;;;;28.90;19.15;;;1.80;99.90;;;;;;2082047;28;20420;-77
2023/04/07 01:24:11;;;;;;;27.10;18.75;;;1.80;99.90;;;;;;2074590;28;20040;-78
2023/04/07 01:25:30;;;;;;;26.42;18.20;;;1.80;99.90;;;;;;2082710;28;20029;-77
2023/04/07 01:26:32;;;;;;;27.40;18.10;;;1.80;99.90;;;;;;2075659;28;20032;-77
2023/04/07 01:27:39;;;;;;;26.83;18.45;;;1.80;99.90;;;;;;2077270;28;20032;-77
2023/04/07 01:28:42;;;;;;;24.75;17.80;;;1.80;99.90;;;;;;2081934;28;20525;-79
2023/04/07 01:29:46;;;;;;;28.17;18.67;;;1.70;99.90;;;;;;2074490;28;20029;-78
2023/04/07 01:30:48;;;;;;;26.23;17.83;;;1.70;99.90;;;;;;2074561;28;20041;-77
2023/04/07 01:31:49;;;;;;;24.75;17.60;;;1.70;99.90;;;;;;2074309;28;20040;-79
2023/04/07 01:32:52;;;;;;;25.88;17.65;;;1.70;99.90;;;;;;2077811;28;20037;-78
2023/04/07 01:33:58;;;;;;;27.33;17.83;;;1.70;99.90;;;;;;2081723;28;20075;-78
2023/04/07 01:34:59;;;;;;;24.80;17.77;;;1.70;99.90;;;;;;2082438;28;20021;-79
2023/04/07 01:36:01;;;;;;;24.77;17.88;;;1.60;99.90;;;;;;2083981;28;20510;-78
2023/04/07 01:37:04;;;;;;;24.38;17.80;;;1.70;99.90;;;;;;2076168;28;20025;-78
2023/04/07 01:38:06;;;;;;;26.35;17.80;;;1.60;99.90;;;;;;2074281;28;20029;-78
2023/04/07 01:39:08;;;;;;;26.48;18.40;;;1.60;99.90;;;;;;2082406;28;20063;-77
2023/04/07 01:40:10;;;;;;;27.83;18.38;;;1.60;99.90;;;;;;2082034;28;20056;-77
2023/04/07 01:41:13;;;;;;;26.63;18.63;;;1.50;99.90;;;;;;2084231;28;20056;-78
2023/04/07 01:42:15;;;;;;;33.45;20.15;;;1.50;99.90;;;;;;2082059;28;20098;-78
2023/04/07 01:43:16;;;;;;;40.67;23.27;;;1.50;99.90;;;;;;2082410;28;20404;-78
2023/04/07 01:44:18;;;;;;;45.03;24.67;;;1.50;99.90;;;;;;2081972;28;20128;-78
2023/04/07 01:45:20;;;;;;;49.22;25.92;;;1.50;99.90;;;;;;2082393;28;20424;-76
2023/04/07 01:46:20;;;;;;;43.97;24.73;;;1.50;99.90;;;;;;2084739;28;20033;-78
2023/04/07 01:47:21;;;;;;;42.58;24.10;;;1.50;99.90;;;;;;2084224;28;20040;-79
2023/04/07 01:48:23;;;;;;;43.65;24.10;;;1.50;99.90;;;;;;2082951;28;20025;-78
2023/04/07 01:49:25;;;;;;;47.85;25.50;;;1.50;99.90;;;;;;2082255;28;20372;-77
2023/04/07 01:50:27;;;;;;;44.13;24.05;;;1.40;99.90;;;;;;2083986;28;20028;-80
2023/04/07 01:51:29;;;;;;;44.95;23.30;;;1.50;99.90;;;;;;2082022;28;20025;-79
2023/04/07 01:52:34;;;;;;;36.95;21.23;;;1.50;99.90;;;;;;2082163;28;20025;-79
2023/04/07 01:53:38;;;;;;;36.47;21.02;;;1.40;99.90;;;;;;2082857;28;20124;-79
2023/04/07 01:54:40;;;;;;;42.15;22.75;;;1.40;99.90;;;;;;2082803;28;20447;-79
2023/04/07 01:55:41;;;;;;;48.42;24.95;;;1.40;99.90;;;;;;2082859;28;20279;-79
2023/04/07 01:56:44;;;;;;;43.63;23.75;;;1.40;99.90;;;;;;2082419;28;20025;-79
2023/04/07 01:57:44;;;;;;;42.92;23.73;;;1.40;99.90;;;;;;2084188;28;20146;-79
2023/04/07 01:58:51;;;;;;;41.67;22.80;;;1.40;99.90;;;;;;2084114;28;20035;-79
2023/04/07 01:59:54;;;;;;;39.33;22.58;;;1.40;99.90;;;;;;2082547;28;20067;-80
2023/04/07 02:00:58;;;;;;;36.63;22.10;;;1.30;99.90;;;;;;2078019;28;20025;-80
2023/04/07 02:01:59;;;;;;;37.75;21.98;;;1.30;99.90;;;;;;2081680;28;20115;-80
2023/04/07 02:03:10;;;;;;;36.45;21.45;;;1.30;99.90;;;;;;2082775;28;20136;-79
2023/04/07 02:04:47;;;;;;;38.75;22.33;;;1.30;99.90;;;;;;2082694;28;20043;-79
2023/04/07 02:05:53;;;;;;;40.53;22.05;;;1.40;99.90;;;;;;2079389;28;20045;-79
2023/04/07 02:07:05;;;;;;;40.63;22.27;;;1.30;99.90;;;;;;2077508;28;20037;-78
2023/04/07 02:08:16;;;;;;;39.55;22.17;;;1.30;99.90;;;;;;2083081;28;20060;-78
2023/04/07 02:09:20;;;;;;;44.78;22.95;;;1.30;99.90;;;;;;2077977;28;20093;-78
2023/04/07 02:10:23;;;;;;;48.15;24.42;;;1.30;99.90;;;;;;2082548;28;20052;-79
2023/04/07 02:11:28;;;;;;;46.35;23.77;;;1.30;99.90;;;;;;2083401;28;20057;-77
2023/04/07 02:12:35;;;;;;;46.42;23.65;;;1.30;99.90;;;;;;2082799;28;20040;-80
2023/04/07 02:13:51;;;;;;;39.60;21.33;;;1.30;99.90;;;;;;2076681;28;20033;-79
2023/04/07 02:14:53;;;;;;;40.72;21.73;;;1.30;99.90;;;;;;2074612;28;20071;-80
2023/04/07 02:15:55;;;;;;;40.33;21.77;;;1.30;99.90;;;;;;2075842;28;20022;-80
2023/04/07 02:16:59;;;;;;;38.47;21.50;;;1.30;99.90;;;;;;2071421;28;20041;-79
2023/04/07 02:18:02;;;;;;;38.25;20.95;;;1.40;99.90;;;;;;2077250;28;20119;-78
2023/04/07 02:19:03;;;;;;;41.30;22.63;;;1.30;99.90;;;;;;2083909;28;20017;-78
2023/04/07 02:20:06;;;;;;;39.30;22.58;;;1.30;99.90;;;;;;2082574;28;20070;-78
2023/04/07 02:21:08;;;;;;;45.38;24.02;;;1.30;99.90;;;;;;2082118;28;20017;-77
2023/04/07 02:22:10;;;;;;;46.40;24.95;;;1.40;99.90;;;;;;2084113;28;20127;-79
2023/04/07 02:23:11;;;;;;;47.63;24.85;;;1.30;99.90;;;;;;2090342;28;20115;-78
2023/04/07 02:24:12;;;;;;;53.97;27.27;;;1.30;99.90;;;;;;2082046;28;20055;-80
2023/04/07 02:25:31;;;;;;;56.97;27.88;;;1.30;99.90;;;;;;2073631;28;20013;-78
2023/04/07 02:26:34;;;;;;;56.08;26.92;;;1.40;99.90;;;;;;2079164;28;20492;-78
2023/04/07 02:27:35;;;;;;;50.00;26.77;;;1.30;99.90;;;;;;2082666;28;20647;-78
2023/04/07 02:28:35;;;;;;;56.20;28.13;;;1.30;99.90;;;;;;2082052;28;20075;-78
2023/04/07 02:29:36;;;;;;;50.25;26.15;;;1.30;99.90;;;;;;2073461;28;20061;-75
2023/04/07 02:30:37;;;;;;;43.13;24.20;;;1.30;99.90;;;;;;2075584;28;20029;-78
2023/04/07 02:31:38;;;;;;;40.67;23.35;;;1.30;99.90;;;;;;2086336;28;20035;-79
2023/04/07 02:32:38;;;;;;;41.83;23.20;;;1.30;99.90;;;;;;2082656;28;20462;-78
2023/04/07 02:33:39;;;;;;;43.22;23.40;;;1.20;99.90;;;;;;2081796;28;20033;-77
2023/04/07 02:34:40;;;;;;;42.08;23.10;;;1.30;99.90;;;;;;2083756;28;20029;-78
2023/04/07 02:35:41;;;;;;;43.78;24.42;;;1.20;99.90;;;;;;2081827;28;20111;-78
2023/04/07 02:36:42;;;;;;;38.22;22.30;;;1.20;99.90;;;;;;2073683;28;20029;-78
2023/04/07 02:37:43;;;;;;;37.95;22.63;;;1.20;99.90;;;;;;2073151;28;20040;-79
2023/04/07 02:38:44;;;;;;;41.35;23.88;;;1.20;99.90;;;;;;2071180;28;20032;-79
2023/04/07 02:39:44;;;;;;;34.85;21.30;;;1.20;99.90;;;;;;2086336;28;20468;-79
2023/04/07 02:40:45;;;;;;;34.97;20.90;;;1.20;99.90;;;;;;2080943;28;20021;-79
2023/04/07 02:41:46;;;;;;;32.33;20.42;;;1.20;99.90;;;;;;2081983;28;20496;-79
2023/04/07 02:42:46;;;;;;;32.55;20.30;;;1.10;99.90;;;;;;2073789;28;20033;-78
2023/04/07 02:43:48;;;;;;;30.55;19.85;;;1.10;99.90;;;;;;2083731;28;20047;-80
2023/04/07 02:44:50;;;;;;;33.95;20.92;;;1.10;99.90;;;;;;2082793;28;20025;-79
2023/04/07 02:45:50;;;;;;;37.28;21.85;;;1.10;99.90;;;;;;2082667;28;20072;-79
2023/04/07 02:46:51;;;;;;;39.63;22.73;;;1.10;99.90;;;;;;2082937;28;20465;-80
2023/04/07 02:47:52;;;;;;;40.85;23.38;;;1.10;99.90;;;;;;2083830;28;20310;-79
2023/04/07 02:48:52;;;;;;;38.75;23.25;;;1.10;99.90;;;;;;2082487;28;20037;-79
2023/04/07 02:49:53;;;;;;;45.08;25.15;;;1.10;99.90;;;;;;2082447;28;20025;-80
2023/04/07 02:50:53;;;;;;;43.30;24.92;;;1.10;99.90;;;;;;2082807;28;20622;-79
2023/04/07 02:51:54;;;;;;;39.53;23.13;;;1.10;99.90;;;;;;2084536;28;20560;-77
2023/04/07 02:52:54;;;;;;;36.40;21.90;;;1.10;99.90;;;;;;2081801;28;20135;-78
2023/04/07 02:53:55;;;;;;;32.53;21.60;;;1.10;99.90;;;;;;2073673;28;20045;-79
2023/04/07 02:54:56;;;;;;;30.20;19.38;;;1.10;99.90;;;;;;2073433;28;20033;-80
2023/04/07 02:56:00;;;;;;;28.08;19.08;;;1.10;99.90;;;;;;2077144;28;20060;-79
2023/04/07 02:57:01;;;;;;;26.42;18.10;;;1.10;99.90;;;;;;2075151;28;20388;-79
2023/04/07 02:58:01;;;;;;;26.08;18.42;;;1.10;99.90;;;;;;2074925;28;20051;-79
2023/04/07 02:59:10;;;;;;;25.23;17.13;;;1.10;99.90;;;;;;2080859;28;20035;-79
2023/04/07 03:00:15;;;;;;;24.48;17.45;;;1.10;99.90;;;;;;2085663;28;20046;-79
2023/04/07 03:01:27;;;;;;;26.30;17.83;;;1.10;99.90;;;;;;2087373;28;20021;-79
2023/04/07 03:02:28;;;;;;;26.83;18.08;;;1.10;99.90;;;;;;2083314;28;20021;-79
2023/04/07 03:03:29;;;;;;;26.45;18.55;;;1.10;99.90;;;;;;2077831;28;20029;-80
2023/04/07 03:04:38;;;;;;;24.20;17.48;;;1.10;99.90;;;;;;2079878;28;20021;-75
2023/04/07 03:05:38;;;;;;;24.05;17.15;;;1.10;99.90;;;;;;2077076;28;20046;-80
2023/04/07 03:06:40;;;;;;;25.33;17.13;;;1.10;99.90;;;;;;2083227;28;20162;-79
2023/04/07 03:07:45;;;;;;;27.17;18.25;;;1.10;99.90;;;;;;2082490;28;20083;-78
2023/04/07 03:08:46;;;;;;;24.88;18.10;;;1.10;99.90;;;;;;2073384;28;20060;-78
2023/04/07 03:09:47;;;;;;;25.85;17.90;;;1.10;99.90;;;;;;2071012;28;20038;-78
2023/04/07 03:10:50;;;;;;;25.13;17.85;;;1.00;99.90;;;;;;2067507;28;20045;-77
2023/04/07 03:11:57;;;;;;;24.00;17.48;;;1.10;99.90;;;;;;2065844;28;20026;-78
2023/04/07 03:12:59;;;;;;;25.38;16.80;;;1.00;99.90;;;;;;2068579;28;20041;-78
2023/04/07 03:14:00;;;;;;;23.10;16.83;;;1.00;99.90;;;;;;2071163;28;20095;-77
2023/04/07 03:15:04;;;;;;;23.33;17.38;;;1.00;99.90;;;;;;2064509;28;20038;-78
2023/04/07 03:16:04;;;;;;;23.92;16.77;;;1.00;99.90;;;;;;2068637;28;20583;-78
2023/04/07 03:17:12;;;;;;;22.02;16.25;;;1.00;99.90;;;;;;2066774;28;20061;-77
2023/04/07 03:18:13;;;;;;;24.10;16.65;;;1.00;99.90;;;;;;2066799;28;20037;-78
2023/04/07 03:19:16;;;;;;;22.20;16.48;;;1.00;99.90;;;;;;2068879;28;20040;-78
2023/04/07 03:20:19;;;;;;;23.75;16.85;;;1.00;99.90;;;;;;2076820;28;20022;-77
2023/04/07 03:21:20;;;;;;;22.13;16.60;;;1.00;99.90;;;;;;2075178;28;20063;-77
2023/04/07 03:22:20;;;;;;;24.30;17.63;;;1.00;99.90;;;;;;2075706;28;20038;-77
2023/04/07 03:23:27;;;;;;;26.70;18.40;;;1.00;99.90;;;;;;2066689;28;20425;-77
2023/04/07 03:24:27;;;;;;;24.90;17.52;;;1.00;99.90;;;;;;2068593;28;20030;-78
2023/04/07 03:25:28;;;;;;;24.75;17.60;;;1.00;99.90;;;;;;2070598;28;20091;-78
2023/04/07 03:26:29;;;;;;;24.70;17.38;;;1.00;99.90;;;;;;2065790;28;20034;-78
2023/04/07 03:27:30;;;;;;;25.40;17.15;;;1.00;99.90;;;;;;2066657;28;20143;-78
2023/04/07 03:28:31;;;;;;;23.50;17.52;;;1.00;99.90;;;;;;2066604;28;20017;-78
2023/04/07 03:29:31;;;;;;;23.38;16.88;;;1.00;99.90;;;;;;2066953;28;20058;-78
2023/04/07 03:30:32;;;;;;;23.67;17.08;;;1.00;99.90;;;;;;2072410;28;20552;-78
2023/04/07 03:31:33;;;;;;;26.63;18.05;;;1.00;99.90;;;;;;2058658;28;20498;-78
2023/04/07 03:32:33;;;;;;;24.98;17.45;;;1.00;99.90;;;;;;2066856;28;20022;-77
2023/04/07 03:33:34;;;;;;;24.95;16.70;;;1.00;99.90;;;;;;2074727;28;20112;-77
2023/04/07 03:34:35;;;;;;;24.63;17.25;;;1.00;99.90;;;;;;2068624;28;20129;-79
2023/04/07 03:35:35;;;;;;;23.55;17.50;;;1.00;99.90;;;;;;2070919;28;20034;-78
2023/04/07 03:36:36;;;;;;;22.38;16.30;;;1.00;99.90;;;;;;2075565;28;20033;-79
2023/04/07 03:37:39;;;;;;;21.85;16.23;;;1.00;99.90;;;;;;2066782;28;20363;-78
2023/04/07 03:38:46;;;;;;;23.05;16.77;;;0.90;99.90;;;;;;2067122;28;20021;-78
2023/04/07 03:39:47;;;;;;;22.80;16.55;;;0.90;99.90;;;;;;2076348;28;20099;-78
2023/04/07 03:41:04;;;;;;;22.17;16.38;;;1.00;99.90;;;;;;2057465;28;20022;-77
2023/04/07 03:42:05;;;;;;;22.00;16.20;;;1.00;99.90;;;;;;2068520;28;20037;-79
2023/04/07 03:43:11;;;;;;;22.48;16.73;;;0.90;99.90;;;;;;2074895;28;20053;-79
2023/04/07 03:44:12;;;;;;;21.45;16.50;;;0.90;99.90;;;;;;2070985;28;20080;-79
2023/04/07 03:45:15;;;;;;;22.52;16.60;;;0.90;99.90;;;;;;2062996;28;20534;-79
2023/04/07 03:46:20;;;;;;;21.95;16.77;;;0.90;99.90;;;;;;2067306;28;20366;-79
2023/04/07 03:47:21;;;;;;;24.17;16.27;;;0.90;99.90;;;;;;2074646;28;20032;-78
2023/04/07 03:48:27;;;;;;;24.10;17.25;;;0.90;99.90;;;;;;2069035;28;20373;-79
2023/04/07 03:49:37;;;;;;;23.33;17.17;;;0.90;99.90;;;;;;2055287;28;20042;-78
2023/04/07 03:50:39;;;;;;;22.38;16.52;;;0.90;99.90;;;;;;2060625;28;20031;-78
2023/04/07 03:51:48;;;;;;;24.05;17.40;;;0.90;99.90;;;;;;2070011;28;20046;-79
2023/04/07 03:52:51;;;;;;;24.13;17.38;;;0.90;99.90;;;;;;2070513;28;20408;-79
2023/04/07 03:53:57;;;;;;;23.98;17.63;;;0.90;99.90;;;;;;2066412;28;20080;-79
2023/04/07 03:55:08;;;;;;;24.58;17.85;;;0.90;99.90;;;;;;2073574;28;20117;-80
2023/04/07 03:56:10;;;;;;;24.38;17.52;;;0.90;99.90;;;;;;2079481;28;20430;-78
2023/04/07 03:57:22;;;;;;;25.92;17.98;;;0.90;99.90;;;;;;2074767;28;20037;-79
2023/04/07 03:58:25;;;;;;;26.38;17.85;;;0.90;99.90;;;;;;2065652;28;20865;-78
2023/04/07 03:59:25;;;;;;;27.33;18.70;;;0.90;99.90;;;;;;2062221;28;20021;-78
2023/04/07 04:00:32;;;;;;;24.40;17.60;;;0.80;99.90;;;;;;2067545;28;20125;-78
2023/04/07 04:01:41;;;;;;;23.38;17.63;;;0.80;99.90;;;;;;2067004;28;20087;-77
2023/04/07 04:02:46;;;;;;;25.20;17.38;;;0.80;99.90;;;;;;2064700;28;20030;-79
2023/04/07 04:03:52;;;;;;;26.90;17.33;;;0.80;99.90;;;;;;2064985;28;20040;-79
2023/04/07 04:04:57;;;;;;;24.27;17.67;;;0.80;99.90;;;;;;2066410;28;20025;-78
2023/04/07 04:05:58;;;;;;;24.00;16.58;;;0.80;99.90;;;;;;2063096;28;20630;-79
2023/04/07 04:07:02;;;;;;;25.23;17.50;;;0.80;99.90;;;;;;2066254;28;20286;-79
2023/04/07 04:08:12;;;;;;;24.42;17.35;;;0.80;99.90;;;;;;2071133;28;20029;-80
2023/04/07 04:09:16;;;;;;;23.10;17.52;;;0.80;99.90;;;;;;2065730;28;20029;-80
2023/04/07 04:10:20;;;;;;;23.92;17.20;;;0.80;99.90;;;;;;2070163;28;20285;-79
2023/04/07 04:11:23;;;;;;;23.15;17.17;;;0.80;99.90;;;;;;2083346;28;20551;-79
2023/04/07 04:12:31;;;;;;;25.98;17.05;;;0.70;99.90;;;;;;2082820;28;20270;-78
2023/04/07 04:13:38;;;;;;;23.63;17.30;;;0.80;99.90;;;;;;2077121;28;20487;-79
2023/04/07 04:14:39;;;;;;;22.05;17.20;;;0.70;99.90;;;;;;2082643;28;20558;-78
2023/04/07 04:15:42;;;;;;;23.67;17.30;;;0.70;99.90;;;;;;2086689;28;20156;-79
2023/04/07 04:16:47;;;;;;;24.55;16.90;;;0.70;99.90;;;;;;2075694;28;20037;-79
2023/04/07 04:17:59;;;;;;;24.10;17.10;;;0.70;99.90;;;;;;2082829;28;20102;-78
2023/04/07 04:19:00;;;;;;;24.58;17.90;;;0.70;99.90;;;;;;2082625;28;20457;-78
2023/04/07 04:20:04;;;;;;;25.15;17.15;;;0.70;99.90;;;;;;2079446;28;20515;-78
2023/04/07 04:21:15;;;;;;;23.63;17.17;;;0.70;99.90;;;;;;2084209;28;20029;-79
2023/04/07 04:22:17;;;;;;;23.40;16.92;;;0.70;99.90;;;;;;2080611;28;20029;-78
2023/04/07 04:23:25;;;;;;;25.40;17.27;;;0.70;99.90;;;;;;2085455;28;20531;-79
2023/04/07 04:24:28;;;;;;;24.27;17.50;;;0.70;99.90;;;;;;2082869;28;20482;-79
2023/04/07 04:25:33;;;;;;;26.17;17.63;;;0.60;99.90;;;;;;2075206;28;20112;-79
2023/04/07 04:26:37;;;;;;;24.60;17.55;;;0.60;99.90;;;;;;2074314;28;20080;-78
2023/04/07 04:27:44;;;;;;;24.85;17.80;;;0.60;99.90;;;;;;2082150;28;20446;-80
2023/04/07 04:28:51;;;;;;;23.70;17.40;;;0.60;99.90;;;;;;2078293;28;20033;-79
2023/04/07 04:29:53;;;;;;;26.27;17.85;;;0.60;99.90;;;;;;2080481;28;20400;-79
2023/04/07 04:31:03;;;;;;;25.52;18.13;;;0.60;99.90;;;;;;2082239;28;20152;-78
2023/04/07 04:32:10;;;;;;;24.55;17.73;;;0.60;99.90;;;;;;2075082;28;20483;-78
2023/04/07 04:33:11;;;;;;;24.73;17.63;;;0.60;99.90;;;;;;2075497;28;20108;-79
2023/04/07 04:34:22;;;;;;;25.73;17.30;;;0.60;99.90;;;;;;2075966;28;20728;-78
2023/04/07 04:35:24;;;;;;;24.45;17.75;;;0.60;99.90;;;;;;2076354;28;20186;-78
2023/04/07 04:36:40;;;;;;;25.88;17.98;;;0.60;99.90;;;;;;2084495;28;20104;-77
2023/04/07 04:37:40;;;;;;;23.08;17.55;;;0.60;99.90;;;;;;2084477;28;20040;-76
2023/04/07 04:38:44;;;;;;;24.95;17.55;;;0.60;99.90;;;;;;2087255;28;20025;-77
2023/04/07 04:39:50;;;;;;;23.80;17.80;;;0.60;99.90;;;;;;2087640;28;20581;-76
2023/04/07 04:40:54;;;;;;;25.92;17.80;;;0.60;99.90;;;;;;2079042;28;20063;-76
2023/04/07 04:42:00;;;;;;;23.85;17.08;;;0.60;99.90;;;;;;2080556;28;20025;-74
2023/04/07 04:43:08;;;;;;;24.73;17.48;;;0.60;99.90;;;;;;2074459;28;20400;-74
2023/04/07 04:44:11;;;;;;;24.77;18.05;;;0.60;99.90;;;;;;2080639;28;20028;-75
2023/04/07 04:45:13;;;;;;;23.52;17.80;;;0.60;99.90;;;;;;2082444;28;20175;-74
2023/04/07 04:46:19;;;;;;;24.75;17.75;;;0.60;99.90;;;;;;2083035;28;20033;-73
2023/04/07 04:47:20;;;;;;;25.95;17.63;;;0.50;99.90;;;;;;2084222;28;20181;-74
2023/04/07 04:48:20;;;;;;;25.30;17.25;;;0.60;99.90;;;;;;2074048;28;20033;-74
2023/04/07 04:49:22;;;;;;;25.35;17.77;;;0.60;99.90;;;;;;2074194;28;20021;-74
2023/04/07 04:50:24;;;;;;;25.50;17.48;;;0.60;99.90;;;;;;2082734;28;20024;-73
2023/04/07 04:51:26;;;;;;;24.52;16.80;;;0.60;99.90;;;;;;2084295;28;20036;-73
2023/04/07 04:52:37;;;;;;;24.88;17.75;;;0.60;99.90;;;;;;2079904;28;20033;-72
2023/04/07 04:53:37;;;;;;;23.90;16.85;;;0.60;99.90;;;;;;2084165;28;20037;-74
2023/04/07 04:54:40;;;;;;;24.58;16.98;;;0.60;99.90;;;;;;2084182;28;20036;-74
2023/04/07 04:55:45;;;;;;;24.50;17.70;;;0.60;99.90;;;;;;2082428;28;20361;-74
2023/04/07 04:56:47;;;;;;;24.77;17.58;;;0.60;99.90;;;;;;2083025;28;20072;-75
2023/04/07 04:57:48;;;;;;;25.05;17.85;;;0.60;99.90;;;;;;2090857;28;20516;-74
2023/04/07 04:58:54;;;;;;;23.23;16.90;;;0.60;99.90;;;;;;2082325;28;20132;-73
2023/04/07 05:00:08;;;;;;;24.27;17.35;;;0.70;99.90;;;;;;2072379;28;20033;-76
2023/04/07 05:01:12;;;;;;;26.58;17.55;;;0.70;99.90;;;;;;2081188;28;20519;-74
2023/04/07 05:02:16;;;;;;;24.80;17.20;;;0.70;99.90;;;;;;2087011;28;20487;-75
2023/04/07 05:03:17;;;;;;;24.20;17.00;;;0.70;99.90;;;;;;2084226;28;20035;-75
2023/04/07 05:04:22;;;;;;;25.92;16.77;;;0.70;99.90;;;;;;2088191;28;20102;-75
2023/04/07 05:05:31;;;;;;;23.48;16.85;;;0.80;99.90;;;;;;2079903;28;20420;-74
2023/04/07 05:06:35;;;;;;;25.17;17.83;;;0.80;99.90;;;;;;2073935;28;20045;-75
2023/04/07 05:07:41;;;;;;;23.33;16.73;;;0.80;99.90;;;;;;2074655;28;20094;-75
2023/04/07 05:08:45;;;;;;;27.05;17.75;;;0.80;99.90;;;;;;2073063;28;20580;-76
2023/04/07 05:09:47;;;;;;;23.83;17.23;;;0.90;99.90;;;;;;2074182;28;20044;-75
2023/04/07 05:10:50;;;;;;;27.67;18.25;;;0.90;99.90;;;;;;2070460;28;20037;-74
2023/04/07 05:11:56;;;;;;;28.15;18.17;;;0.90;99.90;;;;;;2062590;28;20420;-73
2023/04/07 05:12:58;;;;;;;27.58;17.48;;;0.90;99.90;;;;;;2068721;28;20026;-75
2023/04/07 05:13:59;;;;;;;28.10;18.05;;;0.90;99.90;;;;;;2075772;28;20063;-75
2023/04/07 05:14:59;;;;;;;25.88;17.67;;;0.90;99.90;;;;;;2086220;28;20036;-76
2023/04/07 05:16:00;;;;;;;30.08;18.48;;;0.90;99.90;;;;;;2081959;28;20024;-76
2023/04/07 05:17:01;;;;;;;30.55;19.25;;;1.00;99.90;;;;;;2084050;28;20052;-67
2023/04/07 05:18:02;;;;;;;35.55;19.98;;;1.00;99.90;;;;;;2081705;28;20143;-68
2023/04/07 05:19:03;;;;;;;37.75;21.08;;;1.00;99.90;;;;;;2081469;28;20400;-67
2023/04/07 05:20:08;;;;;;;37.95;21.35;;;1.10;99.90;;;;;;2074046;28;20476;-68
2023/04/07 05:21:11;;;;;;;39.22;20.75;;;1.10;99.90;;;;;;2082274;28;20455;-67
2023/04/07 05:22:12;;;;;;;36.65;20.45;;;1.10;99.90;;;;;;2078639;28;20056;-68
2023/04/07 05:23:19;;;;;;;35.05;19.67;;;1.20;99.90;;;;;;2082944;28;20108;-68
2023/04/07 05:24:28;;;;;;;41.13;20.73;;;1.10;99.90;;;;;;2083906;28;20028;-67
2023/04/07 05:25:32;;;;;;;41.10;21.70;;;1.20;99.90;;;;;;2079596;28;20460;-67
2023/04/07 05:26:36;;;;;;;39.03;21.40;;;1.20;99.90;;;;;;2086520;28;20059;-67
2023/04/07 05:27:39;;;;;;;39.92;21.38;;;1.20;99.90;;;;;;2073465;28;20117;-67